sensor_id;sensor_type;location;lat;lon;timestamp;P1;durP1;ratioP1;P2;durP2;ratioP2
20056;SDS011;10189;49.546;7.906;2023-03-03T00:01:13;18.42;;;11.07;;
20056;SDS011;10189;49.546;7.906;2023-03-03T00:03:39;18.50;;;9.57;;
20056;SDS011;10189;49.546;7.906;2023-03-03T00:06:05;17.73;;;10.50;;
20056;SDS011;10189;49.546;7.906;2023-03-03T00:08:36;14.65;;;9.95;;
20056;SDS011;10189;49.546;7.906;2023-03-03T00:11:03;17.45;;;9.68;;
20056;SDS011;10189;49.546;7.906;2023-03-03T00:13:32;13.95;;;8.98;;
20056;SDS011;10189;49.546;7.906;2023-03-03T00:16:22;16.63;;;9.55;;
20056;SDS011;10189;49.546;7.906;2023-03-03T00:18:53;14.73;;;9.85;;
20056;SDS011;10189;49.546;7.906;2023-03-03T00:24:14;25.33;;;13.38;;
20056;SDS011;10189;49.546;7.906;2023-03-03T00:27:09;17.55;;;11.13;;
20056;SDS011;10189;49.546;7.906;2023-03-03T00:30:05;17.70;;;11.18;;
20056;SDS011;10189;49.546;7.906;2023-03-03T00:32:47;21.05;;;12.85;;
20056;SDS011;10189;49.546;7.906;2023-03-03T00:38:00;24.08;;;13.25;;
20056;SDS011;10189;49.546;7.906;2023-03-03T00:40:42;22.80;;;11.90;;
20056;SDS011;10189;49.546;7.906;2023-03-03T00:45:50;20.52;;;11.95;;
20056;SDS011;10189;49.546;7.906;2023-03-03T00:48:26;20.73;;;12.57;;
20056;SDS011;10189;49.546;7.906;2023-03-03T00:51:07;19.40;;;11.82;;
20056;SDS011;10189;49.546;7.906;2023-03-03T00:53:49;18.23;;;11.43;;
20056;SDS011;10189;49.546;7.906;2023-03-03T00:56:15;21.70;;;12.27;;
20056;SDS011;10189;49.546;7.906;2023-03-03T00:58:41;20.02;;;10.73;;
20056;SDS011;10189;49.546;7.906;2023-03-03T01:01:08;19.63;;;10.98;;
20056;SDS011;10189;49.546;7.906;2023-03-03T01:03:44;18.83;;;10.90;;
20056;SDS011;10189;49.546;7.906;2023-03-03T01:06:10;17.77;;;11.07;;
20056;SDS011;10189;49.546;7.906;2023-03-03T01:08:38;16.77;;;10.27;;
20056;SDS011;10189;49.546;7.906;2023-03-03T01:11:06;16.88;;;10.45;;
20056;SDS011;10189;49.546;7.906;2023-03-03T01:13:40;17.13;;;10.75;;
20056;SDS011;10189;49.546;7.906;2023-03-03T01:16:09;15.48;;;10.23;;
20056;SDS011;10189;49.546;7.906;2023-03-03T01:18:35;16.55;;;9.55;;
20056;SDS011;10189;49.546;7.906;2023-03-03T01:21:02;18.10;;;10.50;;
20056;SDS011;10189;49.546;7.906;2023-03-03T01:23:30;16.17;;;10.38;;
20056;SDS011;10189;49.546;7.906;2023-03-03T01:25:56;17.23;;;11.10;;
20056;SDS011;10189;49.546;7.906;2023-03-03T01:28:22;14.75;;;10.23;;
20056;SDS011;10189;49.546;7.906;2023-03-03T01:30:50;17.42;;;10.13;;
20056;SDS011;10189;49.546;7.906;2023-03-03T01:33:16;14.80;;;9.90;;
20056;SDS011;10189;49.546;7.906;2023-03-03T01:35:46;16.15;;;10.55;;
20056;SDS011;10189;49.546;7.906;2023-03-03T01:38:13;16.67;;;10.95;;
20056;SDS011;10189;49.546;7.906;2023-03-03T01:40:40;17.15;;;11.05;;
20056;SDS011;10189;49.546;7.906;2023-03-03T01:43:06;17.33;;;11.23;;
20056;SDS011;10189;49.546;7.906;2023-03-03T01:48:15;18.13;;;12.18;;
20056;SDS011;10189;49.546;7.906;2023-03-03T01:51:06;20.20;;;12.07;;
20056;SDS011;10189;49.546;7.906;2023-03-03T01:53:51;19.55;;;11.65;;
20056;SDS011;10189;49.546;7.906;2023-03-03T01:56:23;19.20;;;12.23;;
20056;SDS011;10189;49.546;7.906;2023-03-03T01:59:04;18.35;;;11.60;;
20056;SDS011;10189;49.546;7.906;2023-03-03T02:01:40;17.25;;;11.50;;
20056;SDS011;10189;49.546;7.906;2023-03-03T02:06:39;19.45;;;11.82;;
20056;SDS011;10189;49.546;7.906;2023-03-03T02:12:06;17.42;;;11.48;;
20056;SDS011;10189;49.546;7.906;2023-03-03T02:14:35;25.35;;;13.98;;
20056;SDS011;10189;49.546;7.906;2023-03-03T02:17:02;21.10;;;13.07;;
20056;SDS011;10189;49.546;7.906;2023-03-03T02:22:33;23.23;;;13.65;;
20056;SDS011;10189;49.546;7.906;2023-03-03T02:25:43;25.27;;;15.23;;
20056;SDS011;10189;49.546;7.906;2023-03-03T02:28:23;18.85;;;13.27;;
20056;SDS011;10189;49.546;7.906;2023-03-03T02:30:57;22.88;;;14.15;;
20056;SDS011;10189;49.546;7.906;2023-03-03T02:33:25;24.60;;;14.07;;
20056;SDS011;10189;49.546;7.906;2023-03-03T02:35:51;22.80;;;14.18;;
20056;SDS011;10189;49.546;7.906;2023-03-03T02:38:35;25.58;;;15.85;;
20056;SDS011;10189;49.546;7.906;2023-03-03T02:44:37;25.02;;;15.18;;
20056;SDS011;10189;49.546;7.906;2023-03-03T02:47:03;24.75;;;15.00;;
20056;SDS011;10189;49.546;7.906;2023-03-03T02:49:31;26.88;;;15.52;;
20056;SDS011;10189;49.546;7.906;2023-03-03T02:52:00;21.80;;;13.35;;
20056;SDS011;10189;49.546;7.906;2023-03-03T02:54:30;30.98;;;18.27;;
20056;SDS011;10189;49.546;7.906;2023-03-03T02:56:57;26.23;;;16.35;;
20056;SDS011;10189;49.546;7.906;2023-03-03T02:59:25;26.42;;;16.88;;
20056;SDS011;10189;49.546;7.906;2023-03-03T03:01:53;25.40;;;16.02;;
20056;SDS011;10189;49.546;7.906;2023-03-03T03:04:21;23.52;;;15.30;;
20056;SDS011;10189;49.546;7.906;2023-03-03T03:06:52;27.17;;;17.60;;
20056;SDS011;10189;49.546;7.906;2023-03-03T03:09:21;26.17;;;16.95;;
20056;SDS011;10189;49.546;7.906;2023-03-03T03:11:50;29.23;;;18.38;;
20056;SDS011;10189;49.546;7.906;2023-03-03T03:14:20;28.63;;;18.02;;
20056;SDS011;10189;49.546;7.906;2023-03-03T03:16:48;24.58;;;16.45;;
20056;SDS011;10189;49.546;7.906;2023-03-03T03:19:14;27.70;;;17.75;;
20056;SDS011;10189;49.546;7.906;2023-03-03T03:21:41;35.65;;;20.90;;
20056;SDS011;10189;49.546;7.906;2023-03-03T03:24:08;31.63;;;19.10;;
20056;SDS011;10189;49.546;7.906;2023-03-03T03:26:36;31.77;;;19.75;;
20056;SDS011;10189;49.546;7.906;2023-03-03T03:29:03;34.63;;;20.98;;
20056;SDS011;10189;49.546;7.906;2023-03-03T03:31:29;32.95;;;20.20;;
20056;SDS011;10189;49.546;7.906;2023-03-03T03:33:56;34.42;;;19.85;;
20056;SDS011;10189;49.546;7.906;2023-03-03T03:36:22;31.23;;;20.35;;
20056;SDS011;10189;49.546;7.906;2023-03-03T03:38:49;28.98;;;18.77;;
20056;SDS011;10189;49.546;7.906;2023-03-03T03:41:16;32.95;;;20.08;;
20056;SDS011;10189;49.546;7.906;2023-03-03T03:43:42;32.53;;;20.77;;
20056;SDS011;10189;49.546;7.906;2023-03-03T03:46:08;36.72;;;21.08;;
20056;SDS011;10189;49.546;7.906;2023-03-03T03:48:34;32.40;;;18.55;;
20056;SDS011;10189;49.546;7.906;2023-03-03T03:51:02;28.35;;;19.02;;
20056;SDS011;10189;49.546;7.906;2023-03-03T03:53:30;34.83;;;21.42;;
20056;SDS011;10189;49.546;7.906;2023-03-03T03:55:55;31.58;;;21.48;;
20056;SDS011;10189;49.546;7.906;2023-03-03T03:58:21;33.58;;;21.35;;
20056;SDS011;10189;49.546;7.906;2023-03-03T04:01:00;34.55;;;21.25;;
20056;SDS011;10189;49.546;7.906;2023-03-03T04:03:30;28.42;;;18.60;;
20056;SDS011;10189;49.546;7.906;2023-03-03T04:05:56;27.67;;;17.92;;
20056;SDS011;10189;49.546;7.906;2023-03-03T04:08:22;26.92;;;17.27;;
20056;SDS011;10189;49.546;7.906;2023-03-03T04:10:48;30.17;;;18.65;;
20056;SDS011;10189;49.546;7.906;2023-03-03T04:13:14;35.05;;;22.77;;
20056;SDS011;10189;49.546;7.906;2023-03-03T04:15:40;45.03;;;26.92;;
20056;SDS011;10189;49.546;7.906;2023-03-03T04:18:06;39.60;;;24.60;;
20056;SDS011;10189;49.546;7.906;2023-03-03T04:20:32;41.53;;;25.75;;
20056;SDS011;10189;49.546;7.906;2023-03-03T04:23:00;39.45;;;24.10;;
20056;SDS011;10189;49.546;7.906;2023-03-03T04:25:27;37.67;;;23.75;;
20056;SDS011;10189;49.546;7.906;2023-03-03T04:27:53;41.10;;;26.23;;
20056;SDS011;10189;49.546;7.906;2023-03-03T04:30:21;36.65;;;24.95;;
20056;SDS011;10189;49.546;7.906;2023-03-03T04:32:50;38.80;;;23.67;;
20056;SDS011;10189;49.546;7.906;2023-03-03T04:35:20;33.63;;;22.05;;
20056;SDS011;10189;49.546;7.906;2023-03-03T04:37:46;44.67;;;26.15;;
20056;SDS011;10189;49.546;7.906;2023-03-03T04:40:12;45.35;;;26.95;;
20056;SDS011;10189;49.546;7.906;2023-03-03T04:42:40;46.35;;;28.77;;
20056;SDS011;10189;49.546;7.906;2023-03-03T04:45:07;45.72;;;28.23;;
20056;SDS011;10189;49.546;7.906;2023-03-03T04:47:34;37.08;;;24.00;;
20056;SDS011;10189;49.546;7.906;2023-03-03T04:50:00;38.90;;;25.40;;
20056;SDS011;10189;49.546;7.906;2023-03-03T04:52:29;38.22;;;23.63;;
20056;SDS011;10189;49.546;7.906;2023-03-03T04:54:55;42.47;;;24.88;;
20056;SDS011;10189;49.546;7.906;2023-03-03T04:57:21;29.77;;;19.38;;
20056;SDS011;10189;49.546;7.906;2023-03-03T04:59:48;35.72;;;21.73;;
20056;SDS011;10189;49.546;7.906;2023-03-03T05:02:14;37.88;;;21.27;;
20056;SDS011;10189;49.546;7.906;2023-03-03T05:04:40;37.38;;;22.45;;
20056;SDS011;10189;49.546;7.906;2023-03-03T05:07:06;37.33;;;23.35;;
20056;SDS011;10189;49.546;7.906;2023-03-03T05:09:32;40.83;;;24.05;;
20056;SDS011;10189;49.546;7.906;2023-03-03T05:11:58;49.58;;;30.13;;
20056;SDS011;10189;49.546;7.906;2023-03-03T05:14:24;43.20;;;26.73;;
20056;SDS011;10189;49.546;7.906;2023-03-03T05:16:51;48.72;;;28.27;;
20056;SDS011;10189;49.546;7.906;2023-03-03T05:19:16;50.42;;;31.10;;
20056;SDS011;10189;49.546;7.906;2023-03-03T05:21:42;46.10;;;28.48;;
20056;SDS011;10189;49.546;7.906;2023-03-03T05:24:09;45.58;;;29.60;;
20056;SDS011;10189;49.546;7.906;2023-03-03T05:26:37;48.63;;;29.48;;
20056;SDS011;10189;49.546;7.906;2023-03-03T05:29:05;51.20;;;31.33;;
20056;SDS011;10189;49.546;7.906;2023-03-03T05:31:31;52.33;;;32.00;;
20056;SDS011;10189;49.546;7.906;2023-03-03T05:33:57;57.00;;;33.45;;
20056;SDS011;10189;49.546;7.906;2023-03-03T05:36:23;53.80;;;32.20;;
20056;SDS011;10189;49.546;7.906;2023-03-03T05:38:49;57.22;;;31.63;;
20056;SDS011;10189;49.546;7.906;2023-03-03T05:41:16;55.72;;;32.28;;
20056;SDS011;10189;49.546;7.906;2023-03-03T05:43:42;83.80;;;50.05;;
20056;SDS011;10189;49.546;7.906;2023-03-03T05:46:09;62.85;;;37.53;;
20056;SDS011;10189;49.546;7.906;2023-03-03T05:48:36;60.90;;;37.70;;
20056;SDS011;10189;49.546;7.906;2023-03-03T05:51:02;51.17;;;33.22;;
20056;SDS011;10189;49.546;7.906;2023-03-03T05:53:28;71.43;;;39.85;;
20056;SDS011;10189;49.546;7.906;2023-03-03T05:55:54;65.40;;;36.72;;
20056;SDS011;10189;49.546;7.906;2023-03-03T05:58:20;54.33;;;33.35;;
20056;SDS011;10189;49.546;7.906;2023-03-03T06:00:46;54.70;;;31.23;;
20056;SDS011;10189;49.546;7.906;2023-03-03T06:03:12;52.05;;;31.13;;
20056;SDS011;10189;49.546;7.906;2023-03-03T06:05:38;54.80;;;31.08;;
20056;SDS011;10189;49.546;7.906;2023-03-03T06:08:04;55.58;;;32.28;;
20056;SDS011;10189;49.546;7.906;2023-03-03T06:10:30;58.40;;;34.42;;
20056;SDS011;10189;49.546;7.906;2023-03-03T06:13:00;56.80;;;34.60;;
20056;SDS011;10189;49.546;7.906;2023-03-03T06:15:26;54.53;;;34.58;;
20056;SDS011;10189;49.546;7.906;2023-03-03T06:17:52;57.05;;;34.00;;
20056;SDS011;10189;49.546;7.906;2023-03-03T06:20:18;58.80;;;33.45;;
20056;SDS011;10189;49.546;7.906;2023-03-03T06:22:44;55.42;;;35.60;;
20056;SDS011;10189;49.546;7.906;2023-03-03T06:25:10;59.63;;;38.72;;
20056;SDS011;10189;49.546;7.906;2023-03-03T06:27:36;61.00;;;38.30;;
20056;SDS011;10189;49.546;7.906;2023-03-03T06:30:02;60.55;;;37.45;;
20056;SDS011;10189;49.546;7.906;2023-03-03T06:32:28;78.68;;;44.83;;
20056;SDS011;10189;49.546;7.906;2023-03-03T06:34:54;58.10;;;36.08;;
20056;SDS011;10189;49.546;7.906;2023-03-03T06:37:20;57.55;;;35.08;;
20056;SDS011;10189;49.546;7.906;2023-03-03T06:39:46;53.80;;;32.78;;
20056;SDS011;10189;49.546;7.906;2023-03-03T06:42:12;60.65;;;37.67;;
20056;SDS011;10189;49.546;7.906;2023-03-03T06:44:37;64.07;;;38.67;;
20056;SDS011;10189;49.546;7.906;2023-03-03T06:47:03;69.47;;;41.78;;
20056;SDS011;10189;49.546;7.906;2023-03-03T06:49:30;69.28;;;40.67;;
20056;SDS011;10189;49.546;7.906;2023-03-03T06:51:56;72.38;;;41.85;;
20056;SDS011;10189;49.546;7.906;2023-03-03T06:54:29;72.60;;;41.92;;
20056;SDS011;10189;49.546;7.906;2023-03-03T06:56:59;64.13;;;38.70;;
20056;SDS011;10189;49.546;7.906;2023-03-03T06:59:40;47.53;;;29.75;;
20056;SDS011;10189;49.546;7.906;2023-03-03T07:02:11;47.33;;;28.35;;
20056;SDS011;10189;49.546;7.906;2023-03-03T07:04:41;61.58;;;32.97;;
20056;SDS011;10189;49.546;7.906;2023-03-03T07:07:18;63.75;;;34.80;;
20056;SDS011;10189;49.546;7.906;2023-03-03T07:09:53;42.55;;;26.10;;
20056;SDS011;10189;49.546;7.906;2023-03-03T07:12:22;40.38;;;24.92;;
20056;SDS011;10189;49.546;7.906;2023-03-03T07:15:15;39.08;;;25.02;;
20056;SDS011;10189;49.546;7.906;2023-03-03T07:17:45;39.25;;;25.38;;
20056;SDS011;10189;49.546;7.906;2023-03-03T07:20:21;46.90;;;29.35;;
20056;SDS011;10189;49.546;7.906;2023-03-03T07:23:09;44.03;;;29.88;;
20056;SDS011;10189;49.546;7.906;2023-03-03T07:25:48;50.72;;;31.95;;
20056;SDS011;10189;49.546;7.906;2023-03-03T07:28:26;49.63;;;31.40;;
20056;SDS011;10189;49.546;7.906;2023-03-03T07:30:55;42.67;;;27.58;;
20056;SDS011;10189;49.546;7.906;2023-03-03T07:35:59;44.10;;;28.52;;
20056;SDS011;10189;49.546;7.906;2023-03-03T07:38:38;48.88;;;31.58;;
20056;SDS011;10189;49.546;7.906;2023-03-03T07:41:19;67.90;;;42.95;;
20056;SDS011;10189;49.546;7.906;2023-03-03T07:43:51;62.80;;;40.42;;
20056;SDS011;10189;49.546;7.906;2023-03-03T07:46:40;57.25;;;36.17;;
20056;SDS011;10189;49.546;7.906;2023-03-03T07:49:20;57.50;;;36.90;;
20056;SDS011;10189;49.546;7.906;2023-03-03T07:51:59;46.83;;;30.35;;
20056;SDS011;10189;49.546;7.906;2023-03-03T07:54:30;37.25;;;25.45;;
20056;SDS011;10189;49.546;7.906;2023-03-03T07:59:52;46.55;;;30.50;;
20056;SDS011;10189;49.546;7.906;2023-03-03T08:03:31;39.00;;;26.30;;
20056;SDS011;10189;49.546;7.906;2023-03-03T08:05:42;55.65;;;32.95;;
20056;SDS011;10189;49.546;7.906;2023-03-03T08:08:14;48.10;;;31.02;;
20056;SDS011;10189;49.546;7.906;2023-03-03T08:11:01;40.17;;;25.60;;
20056;SDS011;10189;49.546;7.906;2023-03-03T08:13:34;54.20;;;30.70;;
20056;SDS011;10189;49.546;7.906;2023-03-03T08:18:36;37.00;;;23.92;;
20056;SDS011;10189;49.546;7.906;2023-03-03T08:21:21;43.53;;;36.80;;
20056;SDS011;10189;49.546;7.906;2023-03-03T08:23:49;52.83;;;36.10;;
20056;SDS011;10189;49.546;7.906;2023-03-03T08:26:21;40.47;;;26.58;;
20056;SDS011;10189;49.546;7.906;2023-03-03T08:28:49;40.78;;;27.75;;
20056;SDS011;10189;49.546;7.906;2023-03-03T08:31:16;44.20;;;28.05;;
20056;SDS011;10189;49.546;7.906;2023-03-03T08:33:43;49.80;;;30.17;;
20056;SDS011;10189;49.546;7.906;2023-03-03T08:36:10;44.20;;;28.58;;
20056;SDS011;10189;49.546;7.906;2023-03-03T08:38:36;48.75;;;30.67;;
20056;SDS011;10189;49.546;7.906;2023-03-03T08:41:03;50.58;;;32.28;;
20056;SDS011;10189;49.546;7.906;2023-03-03T08:43:29;53.03;;;32.05;;
20056;SDS011;10189;49.546;7.906;2023-03-03T08:45:57;83.38;;;66.18;;
20056;SDS011;10189;49.546;7.906;2023-03-03T08:48:26;55.25;;;35.95;;
20056;SDS011;10189;49.546;7.906;2023-03-03T08:50:53;56.17;;;39.50;;
20056;SDS011;10189;49.546;7.906;2023-03-03T08:53:19;48.72;;;30.90;;
20056;SDS011;10189;49.546;7.906;2023-03-03T08:55:46;44.90;;;29.17;;
20056;SDS011;10189;49.546;7.906;2023-03-03T08:58:13;44.20;;;29.08;;
20056;SDS011;10189;49.546;7.906;2023-03-03T09:00:42;45.10;;;28.00;;
20056;SDS011;10189;49.546;7.906;2023-03-03T09:03:08;45.58;;;29.33;;
20056;SDS011;10189;49.546;7.906;2023-03-03T09:05:35;48.30;;;32.42;;
20056;SDS011;10189;49.546;7.906;2023-03-03T09:08:03;86.28;;;65.88;;
20056;SDS011;10189;49.546;7.906;2023-03-03T09:10:31;50.03;;;31.80;;
20056;SDS011;10189;49.546;7.906;2023-03-03T09:13:05;54.35;;;35.58;;
20056;SDS011;10189;49.546;7.906;2023-03-03T09:15:41;48.58;;;32.65;;
20056;SDS011;10189;49.546;7.906;2023-03-03T09:18:20;53.03;;;32.05;;
20056;SDS011;10189;49.546;7.906;2023-03-03T09:21:24;49.08;;;31.60;;
20056;SDS011;10189;49.546;7.906;2023-03-03T09:23:58;55.53;;;34.05;;
20056;SDS011;10189;49.546;7.906;2023-03-03T09:31:40;65.10;;;43.75;;
20056;SDS011;10189;49.546;7.906;2023-03-03T09:34:41;58.35;;;35.33;;
20056;SDS011;10189;49.546;7.906;2023-03-03T09:37:21;55.70;;;34.33;;
20056;SDS011;10189;49.546;7.906;2023-03-03T09:39:51;53.25;;;33.08;;
20056;SDS011;10189;49.546;7.906;2023-03-03T09:42:35;54.65;;;33.90;;
20056;SDS011;10189;49.546;7.906;2023-03-03T09:48:00;57.95;;;33.63;;
20056;SDS011;10189;49.546;7.906;2023-03-03T09:54:21;52.42;;;32.17;;
20056;SDS011;10189;49.546;7.906;2023-03-03T09:57:16;53.80;;;31.98;;
20056;SDS011;10189;49.546;7.906;2023-03-03T10:00:09;53.13;;;31.90;;
20056;SDS011;10189;49.546;7.906;2023-03-03T10:06:22;52.53;;;33.03;;
20056;SDS011;10189;49.546;7.906;2023-03-03T10:12:35;54.60;;;33.67;;
20056;SDS011;10189;49.546;7.906;2023-03-03T10:18:40;62.72;;;38.95;;
20056;SDS011;10189;49.546;7.906;2023-03-03T10:21:23;60.00;;;38.42;;
20056;SDS011;10189;49.546;7.906;2023-03-03T10:24:27;56.10;;;36.58;;
20056;SDS011;10189;49.546;7.906;2023-03-03T10:27:04;55.08;;;35.05;;
20056;SDS011;10189;49.546;7.906;2023-03-03T10:38:13;48.80;;;31.50;;
20056;SDS011;10189;49.546;7.906;2023-03-03T10:41:18;51.58;;;32.22;;
20056;SDS011;10189;49.546;7.906;2023-03-03T10:59:16;50.45;;;32.75;;
20056;SDS011;10189;49.546;7.906;2023-03-03T11:08:45;54.25;;;34.03;;
20056;SDS011;10189;49.546;7.906;2023-03-03T11:11:37;46.45;;;29.15;;
20056;SDS011;10189;49.546;7.906;2023-03-03T11:14:23;54.42;;;33.15;;
20056;SDS011;10189;49.546;7.906;2023-03-03T11:17:06;49.58;;;32.83;;
20056;SDS011;10189;49.546;7.906;2023-03-03T11:22:46;54.50;;;33.15;;
20056;SDS011;10189;49.546;7.906;2023-03-03T11:25:56;48.13;;;31.70;;
20056;SDS011;10189;49.546;7.906;2023-03-03T11:39:52;50.58;;;32.03;;
20056;SDS011;10189;49.546;7.906;2023-03-03T11:42:25;46.95;;;30.38;;
20056;SDS011;10189;49.546;7.906;2023-03-03T11:45:16;48.42;;;30.40;;
20056;SDS011;10189;49.546;7.906;2023-03-03T12:01:41;48.25;;;30.60;;
20056;SDS011;10189;49.546;7.906;2023-03-03T12:04:41;46.90;;;30.55;;
20056;SDS011;10189;49.546;7.906;2023-03-03T12:13:10;94.05;;;60.53;;
20056;SDS011;10189;49.546;7.906;2023-03-03T12:38:59;47.53;;;30.05;;
20056;SDS011;10189;49.546;7.906;2023-03-03T12:45:06;47.80;;;32.15;;
20056;SDS011;10189;49.546;7.906;2023-03-03T12:56:37;45.03;;;29.02;;
20056;SDS011;10189;49.546;7.906;2023-03-03T12:59:15;44.90;;;28.60;;
20056;SDS011;10189;49.546;7.906;2023-03-03T13:04:41;46.72;;;30.67;;
20056;SDS011;10189;49.546;7.906;2023-03-03T13:07:37;44.15;;;28.67;;
20056;SDS011;10189;49.546;7.906;2023-03-03T13:19:39;47.47;;;29.58;;
20056;SDS011;10189;49.546;7.906;2023-03-03T13:22:25;40.53;;;28.65;;
20056;SDS011;10189;49.546;7.906;2023-03-03T13:28:03;46.50;;;29.83;;
20056;SDS011;10189;49.546;7.906;2023-03-03T13:31:11;41.40;;;28.70;;
20056;SDS011;10189;49.546;7.906;2023-03-03T13:34:00;48.05;;;29.42;;
20056;SDS011;10189;49.546;7.906;2023-03-03T13:36:44;50.92;;;33.10;;
20056;SDS011;10189;49.546;7.906;2023-03-03T13:41:56;47.67;;;30.27;;
20056;SDS011;10189;49.546;7.906;2023-03-03T13:55:49;43.92;;;30.40;;
20056;SDS011;10189;49.546;7.906;2023-03-03T13:58:24;45.28;;;29.08;;
20056;SDS011;10189;49.546;7.906;2023-03-03T14:01:08;50.60;;;35.38;;
20056;SDS011;10189;49.546;7.906;2023-03-03T14:06:47;45.67;;;29.58;;
20056;SDS011;10189;49.546;7.906;2023-03-03T14:15:27;44.47;;;29.33;;
20056;SDS011;10189;49.546;7.906;2023-03-03T14:20:52;46.42;;;30.58;;
20056;SDS011;10189;49.546;7.906;2023-03-03T14:23:33;42.75;;;28.40;;
20056;SDS011;10189;49.546;7.906;2023-03-03T14:26:19;43.53;;;29.63;;
20056;SDS011;10189;49.546;7.906;2023-03-03T14:28:46;49.65;;;30.67;;
20056;SDS011;10189;49.546;7.906;2023-03-03T14:31:28;40.27;;;27.43;;
20056;SDS011;10189;49.546;7.906;2023-03-03T14:36:39;45.75;;;29.00;;
20056;SDS011;10189;49.546;7.906;2023-03-03T14:42:09;42.53;;;28.40;;
20056;SDS011;10189;49.546;7.906;2023-03-03T14:44:58;50.20;;;30.35;;
20056;SDS011;10189;49.546;7.906;2023-03-03T14:47:38;42.78;;;27.90;;
20056;SDS011;10189;49.546;7.906;2023-03-03T14:50:46;43.08;;;27.98;;
20056;SDS011;10189;49.546;7.906;2023-03-03T14:53:19;41.88;;;27.40;;
20056;SDS011;10189;49.546;7.906;2023-03-03T15:01:45;39.95;;;25.95;;
20056;SDS011;10189;49.546;7.906;2023-03-03T15:04:24;42.50;;;27.25;;
20056;SDS011;10189;49.546;7.906;2023-03-03T15:06:55;42.63;;;27.55;;
20056;SDS011;10189;49.546;7.906;2023-03-03T15:09:38;43.30;;;27.90;;
20056;SDS011;10189;49.546;7.906;2023-03-03T15:12:19;37.17;;;25.58;;
20056;SDS011;10189;49.546;7.906;2023-03-03T15:14:51;40.75;;;25.60;;
20056;SDS011;10189;49.546;7.906;2023-03-03T15:17:39;45.20;;;29.77;;
20056;SDS011;10189;49.546;7.906;2023-03-03T15:20:31;40.50;;;27.50;;
20056;SDS011;10189;49.546;7.906;2023-03-03T15:28:51;39.40;;;27.00;;
20056;SDS011;10189;49.546;7.906;2023-03-03T15:34:31;43.83;;;27.42;;
20056;SDS011;10189;49.546;7.906;2023-03-03T16:02:54;39.58;;;27.48;;
20056;SDS011;10189;49.546;7.906;2023-03-03T16:05:53;40.60;;;26.73;;
20056;SDS011;10189;49.546;7.906;2023-03-03T16:08:40;39.05;;;25.45;;
20056;SDS011;10189;49.546;7.906;2023-03-03T16:14:09;42.38;;;27.50;;
20056;SDS011;10189;49.546;7.906;2023-03-03T16:22:18;37.58;;;25.23;;
20056;SDS011;10189;49.546;7.906;2023-03-03T16:25:33;38.17;;;25.67;;
20056;SDS011;10189;49.546;7.906;2023-03-03T16:31:46;33.85;;;23.48;;
20056;SDS011;10189;49.546;7.906;2023-03-03T16:35:10;42.33;;;23.95;;
20056;SDS011;10189;49.546;7.906;2023-03-03T16:37:58;37.33;;;23.75;;
20056;SDS011;10189;49.546;7.906;2023-03-03T16:40:31;35.45;;;23.15;;
20056;SDS011;10189;49.546;7.906;2023-03-03T16:43:18;38.15;;;23.35;;
20056;SDS011;10189;49.546;7.906;2023-03-03T16:46:03;40.38;;;23.40;;
20056;SDS011;10189;49.546;7.906;2023-03-03T16:49:10;40.28;;;23.50;;
20056;SDS011;10189;49.546;7.906;2023-03-03T16:57:38;34.78;;;23.02;;
20056;SDS011;10189;49.546;7.906;2023-03-03T17:00:49;36.80;;;22.00;;
20056;SDS011;10189;49.546;7.906;2023-03-03T17:03:47;32.47;;;20.88;;
20056;SDS011;10189;49.546;7.906;2023-03-03T17:06:39;32.72;;;22.55;;
20056;SDS011;10189;49.546;7.906;2023-03-03T17:20:18;34.10;;;23.17;;
20056;SDS011;10189;49.546;7.906;2023-03-03T17:23:05;35.15;;;22.60;;
20056;SDS011;10189;49.546;7.906;2023-03-03T17:25:58;49.15;;;32.63;;
20056;SDS011;10189;49.546;7.906;2023-03-03T17:34:41;34.58;;;21.98;;
20056;SDS011;10189;49.546;7.906;2023-03-03T17:37:17;43.38;;;27.60;;
20056;SDS011;10189;49.546;7.906;2023-03-03T17:40:30;39.08;;;25.20;;
20056;SDS011;10189;49.546;7.906;2023-03-03T17:43:40;40.17;;;26.70;;
20056;SDS011;10189;49.546;7.906;2023-03-03T17:46:32;50.63;;;34.35;;
20056;SDS011;10189;49.546;7.906;2023-03-03T18:05:49;34.15;;;21.33;;
20056;SDS011;10189;49.546;7.906;2023-03-03T18:08:42;39.67;;;25.77;;
20056;SDS011;10189;49.546;7.906;2023-03-03T18:17:14;39.17;;;23.17;;
20056;SDS011;10189;49.546;7.906;2023-03-03T18:22:48;33.45;;;21.00;;
20056;SDS011;10189;49.546;7.906;2023-03-03T18:25:20;36.17;;;20.73;;
20056;SDS011;10189;49.546;7.906;2023-03-03T18:28:20;41.88;;;27.92;;
20056;SDS011;10189;49.546;7.906;2023-03-03T18:30:58;33.60;;;21.48;;
20056;SDS011;10189;49.546;7.906;2023-03-03T18:33:43;36.47;;;21.80;;
20056;SDS011;10189;49.546;7.906;2023-03-03T18:36:55;43.67;;;26.00;;
20056;SDS011;10189;49.546;7.906;2023-03-03T18:39:43;49.90;;;29.63;;
20056;SDS011;10189;49.546;7.906;2023-03-03T18:44:42;43.03;;;23.38;;
20056;SDS011;10189;49.546;7.906;2023-03-03T18:47:09;39.67;;;22.75;;
20056;SDS011;10189;49.546;7.906;2023-03-03T18:49:49;37.35;;;23.00;;
20056;SDS011;10189;49.546;7.906;2023-03-03T18:53:06;40.75;;;23.02;;
20056;SDS011;10189;49.546;7.906;2023-03-03T18:55:53;39.63;;;23.65;;
20056;SDS011;10189;49.546;7.906;2023-03-03T18:58:32;44.25;;;28.85;;
20056;SDS011;10189;49.546;7.906;2023-03-03T19:01:07;40.10;;;24.65;;
20056;SDS011;10189;49.546;7.906;2023-03-03T19:04:10;42.97;;;26.13;;
20056;SDS011;10189;49.546;7.906;2023-03-03T19:09:16;47.35;;;28.05;;
20056;SDS011;10189;49.546;7.906;2023-03-03T19:12:15;44.85;;;27.98;;
20056;SDS011;10189;49.546;7.906;2023-03-03T19:14:47;41.35;;;24.30;;
20056;SDS011;10189;49.546;7.906;2023-03-03T19:20:27;48.88;;;29.38;;
20056;SDS011;10189;49.546;7.906;2023-03-03T19:25:32;53.50;;;32.75;;
20056;SDS011;10189;49.546;7.906;2023-03-03T19:34:12;90.57;;;51.22;;
20056;SDS011;10189;49.546;7.906;2023-03-03T19:42:37;53.72;;;29.38;;
20056;SDS011;10189;49.546;7.906;2023-03-03T19:45:20;37.40;;;22.70;;
20056;SDS011;10189;49.546;7.906;2023-03-03T19:57:23;56.20;;;32.65;;
20056;SDS011;10189;49.546;7.906;2023-03-03T20:00:24;58.50;;;32.35;;
20056;SDS011;10189;49.546;7.906;2023-03-03T20:09:47;65.10;;;37.40;;
20056;SDS011;10189;49.546;7.906;2023-03-03T20:12:13;57.08;;;33.53;;
20056;SDS011;10189;49.546;7.906;2023-03-03T20:15:22;55.88;;;31.80;;
20056;SDS011;10189;49.546;7.906;2023-03-03T20:21:34;61.35;;;32.63;;
20056;SDS011;10189;49.546;7.906;2023-03-03T20:32:58;61.03;;;31.73;;
20056;SDS011;10189;49.546;7.906;2023-03-03T20:44:45;64.70;;;35.13;;
20056;SDS011;10189;49.546;7.906;2023-03-03T20:47:37;67.20;;;34.00;;
20056;SDS011;10189;49.546;7.906;2023-03-03T20:52:58;63.58;;;32.35;;
20056;SDS011;10189;49.546;7.906;2023-03-03T21:06:54;71.40;;;36.65;;
20056;SDS011;10189;49.546;7.906;2023-03-03T21:09:23;73.35;;;37.05;;
20056;SDS011;10189;49.546;7.906;2023-03-03T21:11:52;74.88;;;36.10;;
20056;SDS011;10189;49.546;7.906;2023-03-03T21:16:53;73.00;;;37.10;;
20056;SDS011;10189;49.546;7.906;2023-03-03T21:19:28;75.93;;;38.80;;
20056;SDS011;10189;49.546;7.906;2023-03-03T21:21:57;86.82;;;45.60;;
20056;SDS011;10189;49.546;7.906;2023-03-03T21:27:32;81.63;;;41.38;;
20056;SDS011;10189;49.546;7.906;2023-03-03T21:32:34;73.38;;;37.20;;